Time;durP1;ratioP1;P1;durP2;ratioP2;P2;SDS_P1;SDS_P2;PMS_P1;PMS_P2;Temp;Humidity;BMP_temperature;BMP_pressure;BME280_temperature;BME280_humidity;BME280_pressure;Samples;Min_cycle;Max_cycle;Signal;HPM_P1;HPM_P2
2022/06/16 00:01:25;;;;;;;6.50;2.92;;;13.10;99.90;;;;;;5074370;28;20064;-72
2022/06/16 00:03:50;;;;;;;6.50;3.15;;;13.10;99.90;;;;;;5073943;28;20094;-73
2022/06/16 00:06:16;;;;;;;5.00;3.05;;;13.00;99.90;;;;;;5073626;28;20048;-72
2022/06/16 00:08:42;;;;;;;4.88;3.20;;;13.10;99.90;;;;;;5073945;28;20048;-72
2022/06/16 00:11:16;;;;;;;5.82;3.13;;;13.00;99.90;;;;;;5055683;28;20048;-72
2022/06/16 00:13:42;;;;;;;5.55;3.30;;;13.10;99.90;;;;;;5079732;28;20079;-72
2022/06/16 00:16:09;;;;;;;5.22;3.03;;;13.10;99.90;;;;;;5094078;28;20482;-72
2022/06/16 00:18:36;;;;;;;4.75;3.00;;;13.10;99.90;;;;;;5093656;28;20487;-72
2022/06/16 00:21:02;;;;;;;8.68;3.20;;;13.10;99.90;;;;;;5094243;28;20043;-72
2022/06/16 00:23:28;;;;;;;7.28;3.47;;;13.10;99.90;;;;;;5093934;28;20044;-72
2022/06/16 00:25:54;;;;;;;4.78;2.83;;;13.10;99.90;;;;;;5093046;28;20488;-72
2022/06/16 00:28:20;;;;;;;5.53;3.22;;;13.10;99.90;;;;;;5093550;28;20073;-72
2022/06/16 00:30:46;;;;;;;4.47;2.97;;;13.00;99.90;;;;;;5093128;28;20105;-73
2022/06/16 00:33:11;;;;;;;5.20;2.80;;;13.00;99.90;;;;;;5089367;28;20082;-73
2022/06/16 00:35:37;;;;;;;3.90;3.00;;;13.00;99.90;;;;;;5091252;28;20403;-72
2022/06/16 00:38:03;;;;;;;3.88;2.90;;;12.90;99.90;;;;;;5093709;28;20055;-73
2022/06/16 00:40:29;;;;;;;5.50;2.70;;;12.90;99.90;;;;;;5093329;28;20096;-72
2022/06/16 00:42:54;;;;;;;4.30;2.67;;;12.90;99.90;;;;;;5090940;28;20427;-72
2022/06/16 00:45:43;;;;;;;5.75;3.45;;;12.90;99.90;;;;;;5093505;28;20036;-72
2022/06/16 00:48:12;;;;;;;6.50;3.28;;;12.90;99.90;;;;;;5093583;28;20048;-72
2022/06/16 00:50:40;;;;;;;5.32;3.17;;;12.80;99.90;;;;;;5092945;28;20496;-71
2022/06/16 00:53:05;;;;;;;6.00;2.90;;;12.80;99.90;;;;;;5093406;28;20044;-72
2022/06/16 00:55:31;;;;;;;4.78;3.10;;;12.80;99.90;;;;;;5092518;28;20044;-72
2022/06/16 00:57:58;;;;;;;4.43;2.83;;;12.80;99.90;;;;;;5092833;28;20048;-72
2022/06/16 01:00:28;;;;;;;5.07;2.90;;;12.80;99.90;;;;;;5093406;28;20060;-72
2022/06/16 01:02:54;;;;;;;5.32;3.25;;;12.70;99.90;;;;;;5092982;28;20048;-72
2022/06/16 01:05:20;;;;;;;6.68;2.72;;;12.80;99.90;;;;;;5093314;28;20548;-73
2022/06/16 01:07:47;;;;;;;4.15;2.60;;;12.80;99.90;;;;;;5093273;28;20040;-72
2022/06/16 01:10:15;;;;;;;4.60;2.80;;;12.80;99.90;;;;;;5092898;28;20052;-73
2022/06/16 01:16:05;;;;;;;5.65;3.15;;;12.90;99.90;;;;;;5092201;28;20096;-72
2022/06/16 01:18:59;;;;;;;4.65;3.20;;;12.90;99.90;;;;;;5071875;28;20094;-72
2022/06/16 01:21:27;;;;;;;5.20;3.20;;;12.90;99.90;;;;;;5055119;28;20221;-72
2022/06/16 01:24:11;;;;;;;5.90;3.03;;;12.90;99.90;;;;;;5075454;28;20079;-73
2022/06/16 01:27:04;;;;;;;5.63;3.28;;;12.80;99.90;;;;;;5072594;28;20134;-72
2022/06/16 01:30:06;;;;;;;4.95;3.22;;;12.70;99.90;;;;;;5054684;28;20549;-72
2022/06/16 01:33:10;;;;;;;5.32;3.42;;;12.50;99.90;;;;;;5068768;28;20057;-72
2022/06/16 01:35:49;;;;;;;4.72;2.85;;;12.30;99.90;;;;;;5029420;28;20053;-73
2022/06/16 01:38:44;;;;;;;4.78;3.25;;;12.10;99.90;;;;;;5079889;28;20462;-72
2022/06/16 01:41:20;;;;;;;4.57;3.10;;;12.10;99.90;;;;;;5092452;28;20068;-72
2022/06/16 01:43:59;;;;;;;4.60;3.03;;;12.20;99.90;;;;;;5092185;28;20529;-72
2022/06/16 01:46:29;;;;;;;5.00;3.30;;;12.20;99.90;;;;;;5091925;28;20040;-72
2022/06/16 01:49:02;;;;;;;5.20;3.30;;;12.20;99.90;;;;;;5092419;28;20487;-72
2022/06/16 01:51:58;;;;;;;7.53;3.65;;;12.20;99.90;;;;;;5092565;28;20124;-73
2022/06/16 01:54:37;;;;;;;5.40;3.90;;;12.20;99.90;;;;;;5091918;28;20403;-72
2022/06/16 01:57:36;;;;;;;6.18;3.22;;;12.20;99.90;;;;;;5092055;28;20115;-76
2022/06/16 02:00:12;;;;;;;5.13;3.50;;;12.30;99.90;;;;;;5091505;28;20044;-72
2022/06/16 02:02:38;;;;;;;;;;;12.30;99.90;;;;;;5074615;28;20135;-72
2022/06/16 02:05:39;;;;;;;5.35;3.33;;;12.30;99.90;;;;;;5092172;28;19923;-72
2022/06/16 02:08:16;;;;;;;5.68;3.45;;;12.20;99.90;;;;;;5064089;28;20086;-72
2022/06/16 02:10:55;;;;;;;5.90;3.67;;;12.30;99.90;;;;;;5091804;28;20063;-72
2022/06/16 02:13:28;;;;;;;7.20;3.80;;;12.20;99.90;;;;;;5091803;28;20044;-72
2022/06/16 02:15:57;;;;;;;5.28;3.25;;;12.20;99.90;;;;;;5070467;28;20055;-72
2022/06/16 02:18:26;;;;;;;4.68;3.10;;;12.20;99.90;;;;;;5088819;28;20511;-72
2022/06/16 02:20:59;;;;;;;6.28;3.50;;;12.20;99.90;;;;;;5073981;28;20059;-72
2022/06/16 02:23:25;;;;;;;5.43;3.45;;;12.30;99.90;;;;;;5092063;28;20094;-73
2022/06/16 02:25:55;;;;;;;6.35;3.63;;;12.30;99.90;;;;;;5053251;28;20441;-72
2022/06/16 02:28:21;;;;;;;5.72;3.28;;;12.30;99.90;;;;;;5083123;28;20052;-72
2022/06/16 02:31:32;;;;;;;6.20;3.53;;;12.20;99.90;;;;;;5085665;28;20058;-72
2022/06/16 02:34:04;;;;;;;6.75;3.20;;;12.20;99.90;;;;;;5086258;28;20060;-73
2022/06/16 02:36:41;;;;;;;9.13;3.78;;;12.20;99.90;;;;;;5091424;28;20051;-73
2022/06/16 02:39:23;;;;;;;5.63;3.40;;;12.20;99.90;;;;;;5091624;28;20055;-72
2022/06/16 02:42:08;;;;;;;4.18;3.22;;;12.20;99.90;;;;;;5091165;28;20040;-72
2022/06/16 02:44:54;;;;;;;3.67;3.00;;;12.20;99.90;;;;;;5091311;28;20500;-73
2022/06/16 02:47:57;;;;;;;6.87;3.77;;;12.20;99.90;;;;;;5073383;28;20044;-72
2022/06/16 02:50:53;;;;;;;5.75;3.72;;;12.10;99.90;;;;;;5052994;28;20488;-72
2022/06/16 02:56:24;;;;;;;5.32;3.38;;;12.10;99.90;;;;;;5090551;28;20595;-72
2022/06/16 02:58:52;;;;;;;6.00;3.72;;;12.20;99.90;;;;;;5090172;28;20047;-72
2022/06/16 03:01:19;;;;;;;5.65;3.80;;;12.20;99.90;;;;;;5090746;28;20085;-73
2022/06/16 03:04:08;;;;;;;5.47;3.35;;;12.20;99.90;;;;;;5091367;28;20052;-72
2022/06/16 03:06:34;;;;;;;5.45;3.72;;;12.30;99.90;;;;;;5091148;28;20048;-72
2022/06/16 03:09:01;;;;;;;7.47;3.85;;;12.20;99.90;;;;;;5090756;28;20090;-72
2022/06/16 03:11:27;;;;;;;6.22;3.95;;;12.30;99.90;;;;;;5091130;28;20097;-72
2022/06/16 03:13:53;;;;;;;6.32;3.75;;;12.30;99.90;;;;;;5090844;28;20040;-73
2022/06/16 03:16:21;;;;;;;7.57;3.90;;;12.30;99.90;;;;;;5091108;28;20071;-72
2022/06/16 03:18:46;;;;;;;4.63;3.67;;;12.30;99.90;;;;;;5090966;28;20051;-73
2022/06/16 03:21:12;;;;;;;6.55;3.13;;;12.30;99.90;;;;;;5090926;28;20125;-72
2022/06/16 03:23:38;;;;;;;6.95;4.03;;;12.30;99.90;;;;;;5090969;28;20122;-72
2022/06/16 03:26:03;;;;;;;7.05;4.03;;;12.30;99.90;;;;;;5088305;28;20087;-72
2022/06/16 03:28:29;;;;;;;7.35;4.13;;;12.30;99.90;;;;;;5087016;28;20211;-72
2022/06/16 03:30:55;;;;;;;5.70;3.95;;;12.40;99.90;;;;;;5053060;28;20047;-73
2022/06/16 03:33:20;;;;;;;7.57;4.03;;;12.40;99.90;;;;;;5087750;28;20040;-72
2022/06/16 03:35:46;;;;;;;5.90;4.20;;;12.30;99.90;;;;;;5089638;28;20076;-73
2022/06/16 03:40:45;;;;;;;7.22;3.80;;;12.30;99.90;;;;;;5088610;28;20052;-72
2022/06/16 03:43:11;;;;;;;5.25;3.20;;;12.30;99.90;;;;;;5070490;28;20044;-72
2022/06/16 03:45:37;;;;;;;6.10;3.95;;;12.20;99.90;;;;;;5070485;28;20051;-73
2022/06/16 03:48:04;;;;;;;4.93;3.30;;;12.20;99.90;;;;;;5070553;28;20040;-72
2022/06/16 03:50:30;;;;;;;9.18;4.28;;;12.20;99.90;;;;;;5070684;28;20048;-72
2022/06/16 03:52:56;;;;;;;5.13;3.17;;;12.30;99.90;;;;;;5070464;28;20123;-72
2022/06/16 03:55:22;;;;;;;5.05;3.40;;;12.30;99.90;;;;;;5070474;28;20052;-72
2022/06/16 03:57:48;;;;;;;5.22;3.40;;;12.30;99.90;;;;;;5069760;28;20399;-72
2022/06/16 04:00:15;;;;;;;4.82;3.95;;;12.30;99.90;;;;;;5069865;28;20045;-72
2022/06/16 04:02:41;;;;;;;6.47;3.35;;;12.20;99.90;;;;;;5070235;28;20502;-72
2022/06/16 04:05:08;;;;;;;4.70;3.40;;;12.10;99.90;;;;;;5070125;28;20041;-73
2022/06/16 04:07:35;;;;;;;6.95;3.58;;;12.10;99.90;;;;;;5086863;28;20051;-72
2022/06/16 04:10:02;;;;;;;5.30;3.50;;;12.10;99.90;;;;;;5094232;28;20565;-72
2022/06/16 04:12:28;;;;;;;5.07;3.67;;;12.10;99.90;;;;;;5094275;28;20490;-72
2022/06/16 04:14:54;;;;;;;5.68;4.10;;;12.10;99.90;;;;;;5080837;28;20044;-72
2022/06/16 04:17:20;;;;;;;6.40;3.50;;;12.10;99.90;;;;;;5056422;28;20048;-72
2022/06/16 04:22:30;;;;;;;4.47;2.95;;;12.00;99.90;;;;;;5093857;28;20555;-72
2022/06/16 04:24:56;;;;;;;4.93;3.33;;;12.00;99.90;;;;;;5075076;28;20123;-74
2022/06/16 04:27:22;;;;;;;4.60;3.22;;;11.90;99.90;;;;;;5092667;28;20052;-72
2022/06/16 04:29:47;;;;;;;4.78;3.05;;;11.90;99.90;;;;;;5072600;28;20048;-73
2022/06/16 04:32:13;;;;;;;5.28;3.30;;;11.90;99.90;;;;;;5064253;28;20052;-73
2022/06/16 04:34:40;;;;;;;5.07;3.05;;;11.90;99.90;;;;;;5093124;28;20055;-72
2022/06/16 04:37:06;;;;;;;4.88;3.25;;;11.90;99.90;;;;;;5093628;28;20480;-72
2022/06/16 04:39:32;;;;;;;4.72;3.20;;;12.00;99.90;;;;;;5093691;28;20050;-73
2022/06/16 04:41:58;;;;;;;5.78;3.38;;;12.10;99.90;;;;;;5081370;28;20056;-73
2022/06/16 04:44:24;;;;;;;5.55;3.53;;;12.20;99.90;;;;;;5073260;28;20044;-72
2022/06/16 04:46:49;;;;;;;4.57;3.20;;;12.40;99.90;;;;;;5073589;28;20053;-73
2022/06/16 04:49:15;;;;;;;7.20;3.88;;;12.50;99.90;;;;;;5073158;28;20044;-72
2022/06/16 04:51:41;;;;;;;5.93;4.00;;;12.70;99.90;;;;;;5073548;28;20036;-72
2022/06/16 04:54:07;;;;;;;8.27;4.10;;;12.90;99.90;;;;;;5072826;28;20051;-73
2022/06/16 04:56:32;;;;;;;5.20;3.58;;;13.10;99.90;;;;;;5073361;28;20052;-73
2022/06/16 04:58:58;;;;;;;7.85;3.85;;;13.30;99.90;;;;;;5072610;28;20032;-73
2022/06/16 05:01:24;;;;;;;5.25;3.45;;;13.50;99.90;;;;;;5072885;28;20048;-72
2022/06/16 05:03:50;;;;;;;5.47;3.60;;;13.80;99.90;;;;;;5072777;28;20056;-72
2022/06/16 05:06:16;;;;;;;7.88;3.67;;;14.00;99.90;;;;;;5072610;28;20036;-73
2022/06/16 05:08:42;;;;;;;4.93;3.40;;;14.30;99.90;;;;;;5073014;28;20079;-73
2022/06/16 05:11:08;;;;;;;6.18;3.70;;;14.40;99.90;;;;;;5072578;28;20508;-73
2022/06/16 05:13:34;;;;;;;4.65;3.00;;;14.50;99.90;;;;;;5077168;28;20046;-72
2022/06/16 05:15:59;;;;;;;4.30;2.90;;;14.60;99.90;;;;;;5093400;28;20087;-73
2022/06/16 05:18:25;;;;;;;4.53;2.58;;;14.70;99.90;;;;;;5092686;28;20083;-73
2022/06/16 05:20:51;;;;;;;5.93;2.70;;;14.80;99.90;;;;;;5092471;28;20500;-73
2022/06/16 05:23:17;;;;;;;5.03;2.50;;;14.80;99.90;;;;;;5092766;28;20147;-73
2022/06/16 05:25:43;;;;;;;3.00;2.10;;;14.90;99.90;;;;;;5092600;28;20044;-73
2022/06/16 05:28:10;;;;;;;4.43;2.33;;;14.90;99.90;;;;;;5074337;28;20442;-73
2022/06/16 05:30:36;;;;;;;4.18;2.30;;;14.90;99.90;;;;;;5092746;28;20104;-72
2022/06/16 05:33:02;;;;;;;5.80;2.28;;;14.90;99.90;;;;;;5092669;28;20051;-74
2022/06/16 05:35:28;;;;;;;3.97;2.60;;;14.90;99.90;;;;;;5074648;28;20040;-73
2022/06/16 05:37:54;;;;;;;5.97;2.45;;;15.00;99.90;;;;;;5092705;28;20130;-72
2022/06/16 05:40:20;;;;;;;4.45;2.50;;;15.10;99.90;;;;;;5074550;28;20147;-73
2022/06/16 05:42:45;;;;;;;3.08;2.08;;;15.20;99.90;;;;;;5092478;28;20369;-73
2022/06/16 05:45:12;;;;;;;3.45;2.33;;;15.30;99.90;;;;;;5074282;28;20048;-72
2022/06/16 05:47:38;;;;;;;4.30;2.38;;;15.40;99.90;;;;;;5092201;28;20052;-72
2022/06/16 05:50:06;;;;;;;4.25;2.30;;;15.40;99.90;;;;;;5071072;28;20052;-72
2022/06/16 05:52:32;;;;;;;4.63;3.00;;;15.40;99.90;;;;;;5053932;28;20554;-73
2022/06/16 05:54:58;;;;;;;3.28;2.42;;;15.40;99.90;;;;;;5089984;28;20055;-73
2022/06/16 05:57:24;;;;;;;4.72;2.92;;;15.40;99.90;;;;;;5091446;28;20044;-73
2022/06/16 05:59:49;;;;;;;4.80;2.45;;;15.50;99.90;;;;;;5079765;28;20047;-73
2022/06/16 06:02:18;;;;;;;3.67;2.08;;;15.60;99.90;;;;;;5071641;28;20083;-73
2022/06/16 06:04:44;;;;;;;6.07;2.22;;;15.70;99.90;;;;;;5071916;28;20487;-73
2022/06/16 06:07:10;;;;;;;3.05;2.00;;;15.70;99.90;;;;;;5053996;28;20048;-72
2022/06/16 06:17:47;;;;;;;;;;;16.00;99.90;;;;;;5092210;28;20135;-69
2022/06/16 06:20:14;;;;;;;2.80;1.33;;;16.00;99.90;;;;;;5092031;28;20010;-69
2022/06/16 06:22:39;;;;;;;4.05;1.70;;;16.10;99.90;;;;;;5091432;28;20044;-69
2022/06/16 06:25:06;;;;;;;2.67;1.20;;;16.20;99.90;;;;;;5091441;28;20388;-69
2022/06/16 06:27:41;;;;;;;4.60;1.67;;;16.20;99.90;;;;;;5091062;28;20446;-69
2022/06/16 06:30:14;;;;;;;2.85;1.30;;;16.40;99.90;;;;;;5086959;28;20051;-69
2022/06/16 06:32:39;;;;;;;2.95;1.30;;;16.40;99.90;;;;;;5090377;28;20036;-69
2022/06/16 06:35:06;;;;;;;2.28;1.27;;;16.60;99.90;;;;;;5091227;28;20117;-69
2022/06/16 06:37:32;;;;;;;4.57;1.60;;;16.60;99.90;;;;;;5091890;28;20056;-68
2022/06/16 06:39:58;;;;;;;4.15;1.70;;;16.80;99.90;;;;;;5091426;28;20131;-69
2022/06/16 06:42:24;;;;;;;2.92;1.40;;;16.90;99.90;;;;;;5056691;28;20444;-69
2022/06/16 06:44:51;;;;;;;2.20;1.50;;;16.90;99.90;;;;;;5073192;28;20054;-69
2022/06/16 06:47:27;;;;;;;2.88;1.45;;;17.00;99.90;;;;;;5091251;28;20369;-68
2022/06/16 06:49:54;;;;;;;3.78;1.30;;;17.10;99.90;;;;;;5091287;28;20188;-69
2022/06/16 06:52:20;;;;;;;2.38;1.27;;;17.10;99.90;;;;;;5069743;28;20619;-69
2022/06/16 06:54:46;;;;;;;2.10;1.33;;;17.20;99.90;;;;;;5078924;28;20055;-69
2022/06/16 06:57:27;;;;;;;3.53;1.60;;;17.30;99.90;;;;;;5090950;28;20040;-69
2022/06/16 06:59:54;;;;;;;4.05;1.60;;;17.30;99.90;;;;;;5073943;28;20076;-68
2022/06/16 07:02:20;;;;;;;4.13;1.50;;;17.40;99.90;;;;;;5077400;28;20095;-68
2022/06/16 07:04:46;;;;;;;2.63;1.20;;;17.40;99.90;;;;;;5090418;28;20056;-70
2022/06/16 07:07:18;;;;;;;2.72;1.00;;;17.40;99.90;;;;;;5065732;28;20097;-70
2022/06/16 07:09:44;;;;;;;5.25;1.52;;;17.40;99.90;;;;;;5070646;28;20127;-70
2022/06/16 07:12:14;;;;;;;2.75;1.30;;;17.50;99.90;;;;;;5052659;28;20503;-69
2022/06/16 07:14:41;;;;;;;2.17;1.30;;;17.50;99.90;;;;;;5083937;28;20051;-68
2022/06/16 07:17:08;;;;;;;1.80;1.20;;;17.50;99.90;;;;;;5090512;28;20044;-69
2022/06/16 07:19:35;;;;;;;2.22;1.10;;;17.60;99.90;;;;;;5090039;28;20052;-69
2022/06/16 07:22:02;;;;;;;3.55;1.10;;;17.60;99.90;;;;;;5069560;28;20614;-69
2022/06/16 07:24:28;;;;;;;2.78;1.15;;;17.70;99.90;;;;;;5088021;28;20048;-69
2022/06/16 07:26:53;;;;;;;2.13;1.10;;;17.80;99.90;;;;;;5072698;28;20446;-68
2022/06/16 07:29:19;;;;;;;2.70;1.00;;;17.80;99.90;;;;;;5071642;28;20078;-68
2022/06/16 07:31:44;;;;;;;1.63;0.90;;;17.90;99.90;;;;;;5086268;28;20105;-70
2022/06/16 07:34:11;;;;;;;2.97;1.20;;;17.90;99.90;;;;;;5081727;28;20052;-69
2022/06/16 07:36:37;;;;;;;2.55;1.23;;;18.00;99.90;;;;;;5084545;28;20063;-68
2022/06/16 07:39:04;;;;;;;4.35;1.10;;;18.00;99.90;;;;;;5078777;28;20047;-69
2022/06/16 07:41:36;;;;;;;2.78;1.10;;;18.10;99.90;;;;;;5085526;28;20067;-68
2022/06/16 07:44:04;;;;;;;2.20;1.25;;;18.10;99.90;;;;;;5084349;28;20070;-69
2022/06/16 07:46:31;;;;;;;2.55;1.13;;;18.20;99.90;;;;;;5076792;28;20059;-67
2022/06/16 07:48:57;;;;;;;1.80;0.70;;;18.30;99.90;;;;;;5067967;28;20449;-69
2022/06/16 07:51:23;;;;;;;3.40;0.80;;;18.30;99.90;;;;;;5088939;28;20122;-68
2022/06/16 07:53:48;;;;;;;2.00;0.80;;;18.40;99.90;;;;;;5093814;28;20091;-68
2022/06/16 07:56:15;;;;;;;1.30;0.70;;;18.50;99.90;;;;;;5094420;28;20040;-70
2022/06/16 07:58:43;;;;;;;2.35;1.00;;;18.50;99.90;;;;;;5086460;28;20492;-69
2022/06/16 08:01:10;;;;;;;3.35;0.90;;;18.50;99.90;;;;;;5071489;28;20397;-69
2022/06/16 08:03:37;;;;;;;2.63;0.95;;;18.60;99.90;;;;;;5075813;28;20081;-69
2022/06/16 08:06:08;;;;;;;2.72;1.10;;;18.60;99.90;;;;;;5093587;28;20108;-69
2022/06/16 08:08:34;;;;;;;1.92;0.90;;;18.60;99.90;;;;;;5093448;28;20056;-69
2022/06/16 08:11:00;;;;;;;1.90;0.75;;;18.60;99.90;;;;;;5092668;28;20071;-67
2022/06/16 08:13:28;;;;;;;1.92;0.85;;;18.60;99.90;;;;;;5085917;28;20048;-68
2022/06/16 08:15:54;;;;;;;4.20;0.80;;;18.70;99.90;;;;;;5093988;28;20093;-68
2022/06/16 08:18:23;;;;;;;3.25;0.90;;;18.70;99.90;;;;;;5092879;28;20136;-70
2022/06/16 08:20:51;;;;;;;2.80;0.90;;;18.80;99.90;;;;;;5091238;28;20115;-68
2022/06/16 08:23:17;;;;;;;2.70;0.80;;;18.90;99.90;;;;;;5088697;28;20097;-67
2022/06/16 08:25:45;;;;;;;2.85;1.00;;;18.90;99.90;;;;;;5072640;28;20064;-68
2022/06/16 08:28:13;;;;;;;1.80;0.90;;;19.00;99.90;;;;;;5092500;28;20044;-68
2022/06/16 08:30:41;;;;;;;2.72;1.00;;;19.10;99.90;;;;;;5092835;28;20119;-67
2022/06/16 08:33:09;;;;;;;2.20;1.05;;;19.20;99.90;;;;;;5093587;28;20058;-69
2022/06/16 08:35:36;;;;;;;3.33;0.95;;;19.20;99.90;;;;;;5093229;28;20307;-68
2022/06/16 08:38:03;;;;;;;2.40;0.90;;;19.20;99.90;;;;;;5072450;28;20497;-69
2022/06/16 08:40:31;;;;;;;3.17;1.00;;;19.20;99.90;;;;;;5063092;28;20483;-68
2022/06/16 08:43:10;;;;;;;2.65;0.85;;;19.20;99.90;;;;;;5080907;28;20056;-69
2022/06/16 08:45:46;;;;;;;2.22;0.95;;;19.10;99.90;;;;;;5085460;28;20036;-69
2022/06/16 08:48:20;;;;;;;3.22;0.93;;;19.20;99.90;;;;;;5085547;28;20041;-72
2022/06/16 08:50:51;;;;;;;3.60;1.05;;;19.30;99.90;;;;;;5087596;28;20048;-73
2022/06/16 08:53:40;;;;;;;1.88;0.90;;;19.30;99.90;;;;;;5091794;28;20117;-72
2022/06/16 08:56:23;;;;;;;2.55;1.00;;;19.40;99.90;;;;;;5089050;28;20054;-72
2022/06/16 08:59:07;;;;;;;2.55;1.20;;;19.40;99.90;;;;;;5087235;28;20071;-73
2022/06/16 09:01:50;;;;;;;2.28;0.98;;;19.40;99.90;;;;;;5092179;28;20441;-72
2022/06/16 09:04:25;;;;;;;3.45;1.17;;;19.60;99.90;;;;;;5083361;28;20076;-73
2022/06/16 09:07:08;;;;;;;3.40;1.10;;;19.60;99.90;;;;;;5080962;28;20178;-73
2022/06/16 09:10:15;;;;;;;1.90;1.00;;;19.60;99.90;;;;;;5088918;28;20048;-73
2022/06/16 09:13:07;;;;;;;3.63;1.50;;;19.60;99.90;;;;;;5087379;28;20078;-72
2022/06/16 09:16:07;;;;;;;2.25;1.10;;;19.70;99.90;;;;;;5059207;28;20095;-73
2022/06/16 09:18:59;;;;;;;2.30;1.30;;;19.70;99.90;;;;;;5084684;28;20089;-73
2022/06/16 09:22:05;;;;;;;1.98;1.30;;;19.80;99.90;;;;;;5089315;28;20047;-72
2022/06/16 09:24:49;;;;;;;3.75;1.27;;;19.80;99.90;;;;;;4979734;28;20136;-72
2022/06/16 09:27:25;;;;;;;3.35;1.20;;;19.90;99.90;;;;;;4983966;28;20039;-72
2022/06/16 09:30:03;;;;;;;3.17;1.20;;;20.00;99.90;;;;;;5059940;28;20064;-72
2022/06/16 09:33:02;;;;;;;2.65;1.40;;;20.10;99.90;;;;;;5064032;28;20073;-72
2022/06/16 09:35:55;;;;;;;4.50;1.58;;;20.30;99.90;;;;;;5088974;28;20048;-72
2022/06/16 09:38:39;;;;;;;2.97;1.40;;;20.30;99.90;;;;;;5086085;28;20100;-75
2022/06/16 09:44:46;;;;;;;3.25;1.70;;;20.40;99.90;;;;;;5092376;28;20115;-72
2022/06/16 09:47:19;;;;;;;3.22;1.55;;;20.40;99.90;;;;;;5067158;28;20131;-72
2022/06/16 09:49:52;;;;;;;4.32;1.90;;;20.40;99.90;;;;;;5073875;28;20436;-72
2022/06/16 09:52:26;;;;;;;3.33;2.13;;;20.40;99.90;;;;;;5092462;28;20369;-73
2022/06/16 09:55:01;;;;;;;3.50;1.90;;;20.40;99.90;;;;;;5092070;28;20040;-72
2022/06/16 09:57:36;;;;;;;2.72;1.75;;;20.30;99.90;;;;;;5086969;28;20067;-72
2022/06/16 10:00:10;;;;;;;2.97;1.57;;;20.30;99.90;;;;;;5092005;28;20094;-72
2022/06/16 10:02:45;;;;;;;2.63;1.60;;;20.30;99.90;;;;;;5092276;28;20052;-72
2022/06/16 10:05:31;;;;;;;2.97;1.42;;;20.20;99.90;;;;;;5070197;28;20554;-73
2022/06/16 10:08:06;;;;;;;3.33;1.67;;;20.20;99.90;;;;;;5072676;28;20395;-71
2022/06/16 10:10:48;;;;;;;2.40;1.48;;;20.20;99.90;;;;;;5073914;28;20400;-73
2022/06/16 10:13:19;;;;;;;5.15;1.90;;;20.20;99.90;;;;;;5089580;28;20040;-71
2022/06/16 10:16:06;;;;;;;3.45;1.80;;;20.30;99.90;;;;;;5071119;28;20048;-73
2022/06/16 10:18:31;;;;;;;2.63;1.65;;;20.30;99.90;;;;;;5062675;28;20484;-72
2022/06/16 10:20:57;;;;;;;2.92;1.55;;;20.40;99.90;;;;;;5091534;28;20056;-73
2022/06/16 10:23:27;;;;;;;2.75;1.60;;;20.50;99.90;;;;;;5091101;28;20399;-73
2022/06/16 10:26:05;;;;;;;3.40;1.88;;;20.60;99.90;;;;;;5090208;28;20629;-71
2022/06/16 10:28:33;;;;;;;3.42;1.80;;;20.70;99.90;;;;;;5087718;28;20492;-72
2022/06/16 10:31:01;;;;;;;5.65;1.55;;;20.70;99.90;;;;;;5075409;28;20075;-73
2022/06/16 10:33:31;;;;;;;3.28;1.60;;;20.70;99.90;;;;;;5090527;28;20044;-73
2022/06/16 10:36:11;;;;;;;3.53;1.75;;;20.70;99.90;;;;;;5085366;28;20048;-72
2022/06/16 10:39:04;;;;;;;4.57;2.05;;;20.70;99.90;;;;;;5072538;28;20094;-73
2022/06/16 10:41:33;;;;;;;4.40;2.00;;;20.70;99.90;;;;;;5085964;28;20416;-73
2022/06/16 10:44:02;;;;;;;2.90;1.58;;;20.70;99.90;;;;;;5080675;28;20044;-72
2022/06/16 10:46:43;;;;;;;3.72;1.77;;;20.80;99.90;;;;;;5074319;28;20055;-73
2022/06/16 10:49:20;;;;;;;2.53;1.90;;;20.80;99.90;;;;;;5079269;28;20443;-71
2022/06/16 10:52:09;;;;;;;3.35;2.00;;;20.90;99.90;;;;;;5090526;28;20427;-72
2022/06/16 10:54:42;;;;;;;4.82;2.35;;;20.80;99.90;;;;;;5081106;28;20128;-72
2022/06/16 10:57:17;;;;;;;3.08;1.98;;;20.70;99.90;;;;;;5086608;28;20080;-72
2022/06/16 10:59:50;;;;;;;3.78;1.92;;;20.70;99.90;;;;;;5085258;28;20503;-71
2022/06/16 11:02:26;;;;;;;2.95;1.77;;;20.70;99.90;;;;;;5089328;28;20070;-72
2022/06/16 11:05:13;;;;;;;4.05;1.83;;;20.70;99.90;;;;;;5081823;28;20446;-71
2022/06/16 11:07:43;;;;;;;4.78;2.00;;;20.80;99.90;;;;;;5070917;28;20442;-72
2022/06/16 11:10:27;;;;;;;4.43;2.17;;;20.80;99.90;;;;;;5090716;28;20040;-72
2022/06/16 11:12:53;;;;;;;3.80;2.17;;;20.80;99.90;;;;;;5076947;28;20048;-72
2022/06/16 11:15:42;;;;;;;3.25;2.17;;;20.80;99.90;;;;;;5076351;28;20051;-71
2022/06/16 11:18:13;;;;;;;4.03;2.17;;;20.90;99.90;;;;;;5063964;28;20408;-70
2022/06/16 11:20:45;;;;;;;5.30;2.20;;;20.90;99.90;;;;;;5088350;28;20119;-72
2022/06/16 11:23:27;;;;;;;3.63;2.20;;;21.00;99.90;;;;;;5089366;28;20032;-71
2022/06/16 11:26:06;;;;;;;3.78;2.22;;;21.10;99.90;;;;;;5081671;28;20052;-71
2022/06/16 11:28:41;;;;;;;4.40;2.35;;;21.10;99.90;;;;;;5085445;28;20048;-72
2022/06/16 11:31:07;;;;;;;4.28;2.55;;;21.10;99.90;;;;;;5084711;28;20193;-72
2022/06/16 11:36:32;;;;;;;4.97;2.58;;;21.10;99.90;;;;;;5089535;28;20074;-74
2022/06/16 11:39:22;;;;;;;3.30;2.42;;;21.20;99.90;;;;;;5081105;28;20109;-74
2022/06/16 11:41:51;;;;;;;3.88;2.45;;;21.30;99.90;;;;;;5089544;28;20051;-72
2022/06/16 11:44:44;;;;;;;5.03;2.58;;;21.30;99.90;;;;;;5078439;28;20044;-73
2022/06/16 11:47:24;;;;;;;3.60;2.38;;;21.40;99.90;;;;;;5082408;28;20047;-72
2022/06/16 11:50:04;;;;;;;4.75;2.60;;;21.40;99.90;;;;;;5089786;28;20052;-74
2022/06/16 11:52:49;;;;;;;3.85;2.45;;;21.40;99.90;;;;;;5072110;28;20124;-72
2022/06/16 11:55:14;;;;;;;4.47;2.70;;;21.50;99.90;;;;;;5081209;28;20481;-72
2022/06/16 11:57:55;;;;;;;3.65;2.42;;;21.50;99.90;;;;;;5089741;28;20066;-72
2022/06/16 12:00:40;;;;;;;3.35;2.22;;;21.60;99.90;;;;;;5083037;28;20086;-75
2022/06/16 12:03:25;;;;;;;3.88;2.22;;;21.70;99.90;;;;;;5080407;28;20049;-72
2022/06/16 12:06:17;;;;;;;4.57;2.33;;;21.90;99.90;;;;;;5069995;28;20044;-69
2022/06/16 12:09:00;;;;;;;3.67;2.42;;;21.80;99.90;;;;;;5049313;28;20052;-73
2022/06/16 12:11:38;;;;;;;4.15;2.33;;;21.70;99.90;;;;;;5090421;28;20044;-73
2022/06/16 12:14:24;;;;;;;4.63;2.25;;;21.80;99.90;;;;;;5086694;28;20051;-71
2022/06/16 12:17:24;;;;;;;6.43;2.55;;;21.90;99.90;;;;;;5089365;28;20056;-72
2022/06/16 12:20:25;;;;;;;3.88;2.00;;;22.00;99.90;;;;;;5084302;28;20594;-71
2022/06/16 12:23:13;;;;;;;4.00;2.35;;;22.10;99.90;;;;;;5085448;28;20051;-71
2022/06/16 12:26:08;;;;;;;4.53;2.60;;;22.10;99.90;;;;;;5089573;28;20051;-72
2022/06/16 12:28:47;;;;;;;5.80;2.00;;;22.00;99.90;;;;;;5067706;28;20125;-71
2022/06/16 12:31:21;;;;;;;3.40;2.17;;;21.90;99.90;;;;;;5082185;28;20079;-70
2022/06/16 12:34:08;;;;;;;5.70;2.67;;;22.00;99.90;;;;;;5093881;28;20036;-72
2022/06/16 12:36:40;;;;;;;5.13;2.25;;;22.00;99.90;;;;;;5074899;28;20059;-71
2022/06/16 12:39:18;;;;;;;4.72;2.38;;;22.00;99.90;;;;;;5093394;28;20052;-72
2022/06/16 12:41:49;;;;;;;4.20;2.30;;;22.10;99.90;;;;;;5091721;28;20048;-72
2022/06/16 12:44:35;;;;;;;4.13;2.30;;;22.10;99.90;;;;;;5073850;28;20047;-71
2022/06/16 12:47:21;;;;;;;5.13;2.15;;;22.10;99.90;;;;;;5073424;28;20074;-72
2022/06/16 12:50:09;;;;;;;3.58;1.98;;;22.00;99.90;;;;;;5072979;28;20056;-72
2022/06/16 12:52:38;;;;;;;3.80;2.40;;;22.10;99.90;;;;;;5073087;28;20032;-70
2022/06/16 12:55:06;;;;;;;4.05;2.13;;;22.20;99.90;;;;;;5072602;28;20040;-71
2022/06/16 12:57:40;;;;;;;3.85;2.20;;;22.20;99.90;;;;;;5079066;28;20059;-75
2022/06/16 13:00:11;;;;;;;2.97;1.80;;;22.30;99.90;;;;;;5071678;28;20391;-74
2022/06/16 13:02:43;;;;;;;3.83;2.15;;;22.30;99.90;;;;;;5086484;28;20078;-73
2022/06/16 13:05:10;;;;;;;3.53;1.98;;;22.40;99.90;;;;;;5085982;28;20048;-72
2022/06/16 13:07:49;;;;;;;2.75;1.90;;;22.30;99.90;;;;;;5067903;28;20047;-73
2022/06/16 13:10:15;;;;;;;4.05;2.10;;;22.20;99.90;;;;;;5087361;28;20052;-72
2022/06/16 13:12:48;;;;;;;4.00;2.03;;;22.00;99.90;;;;;;5083568;28;20052;-73
2022/06/16 13:15:31;;;;;;;3.95;2.30;;;21.90;99.90;;;;;;5081280;28;20052;-72
2022/06/16 13:18:15;;;;;;;3.10;2.10;;;22.00;99.90;;;;;;5092397;28;20047;-75
2022/06/16 13:20:44;;;;;;;3.55;2.03;;;22.10;99.90;;;;;;5087472;28;20040;-73
2022/06/16 13:23:12;;;;;;;3.15;2.10;;;22.10;99.90;;;;;;5074215;28;20109;-72
2022/06/16 13:25:44;;;;;;;2.75;2.05;;;22.20;99.90;;;;;;5091691;28;20048;-75
2022/06/16 13:28:26;;;;;;;4.13;2.25;;;22.30;99.90;;;;;;5073951;28;20083;-73
2022/06/16 13:31:38;;;;;;;3.92;2.20;;;22.30;99.90;;;;;;5092395;28;20056;-71
2022/06/16 13:34:04;;;;;;;4.13;2.40;;;22.30;99.90;;;;;;5043345;28;20052;-69
2022/06/16 13:36:32;;;;;;;2.97;1.92;;;22.30;99.90;;;;;;5092302;28;20059;-69
2022/06/16 13:38:58;;;;;;;3.00;2.15;;;22.30;99.90;;;;;;5074099;28;20447;-68
2022/06/16 13:41:40;;;;;;;8.75;2.28;;;22.30;99.90;;;;;;5083306;28;20485;-69
2022/06/16 13:44:11;;;;;;;4.25;2.20;;;22.40;99.90;;;;;;5071730;28;20036;-69